Flight Track Log - Related Links

Times and Time Zones

All times are in EDT time to prevent confusion due to time zone crossing. See the C-FTOH flight status page for this flight to view local times or setup timezone preferences in your user account.


Time Position Orientation Groundspeed Altitude Reporting Facility
EDT Latitude Longitude Course Direction KTS MPH feet Rate Location/Type
Sun 11:13:00 PM 29.1186 -78.9229 North  Level Estimated
Sun 11:14:00 PM 29.2431 -78.9025 North  Level Estimated
Sun 11:15:00 PM 29.3676 -78.8821 North  Level Estimated
Sun 11:16:00 PM 29.4921 -78.8616 North  Level Estimated
Sun 11:16:05 PM 23.2675 -79.4778 North 429 494 21,100  Level Miami Center
Sun 11:17:00 PM 29.6165 -78.8411 North  Level Estimated
Sun 11:17:05 PM 23.3667 -79.4231 27° Northeast 415 478 23,400  Level Miami Center
Sun 11:18:00 PM 29.7410 -78.8205 North  Level Estimated
Sun 11:18:03 PM 23.4594 -79.3731 26° Northeast 384 442 25,100  Level Miami Center
Sun 11:19:00 PM 29.8655 -78.7999 North  Level Estimated
Sun 11:19:04 PM 23.5608 -79.3161 27° Northeast 390 449 26,700  Level Miami Center
Sun 11:20:00 PM 29.9899 -78.7793 North  Level Estimated
Sun 11:20:06 PM 23.6642 -79.2589 27° Northeast 395 455 27,900  Level Miami Center
Sun 11:21:00 PM 30.1144 -78.7586 North  Level Estimated
Sun 11:21:06 PM 23.7653 -79.2042 26° Northeast 402 463 28,900  Level Miami Center
Sun 11:22:03 PM 23.8728 -79.1425 28° Northeast 408 470 30,100 1,231 Climbing Miami Center
Sun 11:23:03 PM 23.9781 -79.0808 28° Northeast 420 483 31,300 1,091 Climbing Miami Center
Sun 11:24:04 PM 24.0928 -79.1033 350° North 398 458 32,300 1,024 Climbing Miami Center
Sun 11:25:06 PM 24.2089 -79.1486 340° North 400 460 33,400 554 Climbing Miami Center
Sun 11:30:45 PM 24.8420 -79.3810 340° North 417 480 36,000 368 Climbing FlightAware ADS-B
Sun 11:31:25 PM 24.9060 -79.4050 341° North 36,000  Level FlightAware ADS-B
Sun 11:32:10 PM 24.9960 -79.4390 341° North 415 478 36,000  Level FlightAware ADS-B
Sun 11:32:50 PM 25.0680 -79.4660 341° North 415 478 36,000  Level FlightAware ADS-B
Sun 11:33:30 PM 25.1420 -79.4930 342° North 414 476 36,000  Level FlightAware ADS-B
Sun 11:34:15 PM 25.2240 -79.5240 341° North 416 479 36,000  Level FlightAware ADS-B
Sun 11:34:55 PM 25.2980 -79.5520 341° North 416 479 36,000  Level FlightAware ADS-B
Sun 11:35:40 PM 25.3790 -79.5820 341° North 419 482 36,000  Level FlightAware ADS-B
Sun 11:36:20 PM 25.4560 -79.6110 341° North 419 482 36,000  Level FlightAware ADS-B
Sun 11:37:05 PM 25.5360 -79.6410 341° North 415 478 36,000  Level FlightAware ADS-B
Sun 11:37:45 PM 25.6090 -79.6690 341° North 412 474 36,000  Level FlightAware ADS-B
Sun 11:38:25 PM 25.6820 -79.6960 342° North 413 475 36,000  Level FlightAware ADS-B
Sun 11:39:10 PM 25.7620 -79.7270 341° North 413 475 36,000  Level FlightAware ADS-B
Sun 11:39:50 PM 25.8340 -79.7540 341° North 412 474 36,000  Level FlightAware ADS-B
Sun 11:40:35 PM 25.9170 -79.7850 341° North 413 475 36,000  Level FlightAware ADS-B
Sun 11:41:15 PM 25.9900 -79.8130 341° North 414 476 36,000  Level FlightAware ADS-B
Sun 11:41:55 PM 26.0630 -79.8410 341° North 415 478 36,000  Level FlightAware ADS-B
Sun 11:42:40 PM 26.1430 -79.8710 341° North 416 479 36,000  Level FlightAware ADS-B
Sun 11:43:20 PM 26.2160 -79.8990 341° North 417 480 36,000 75 Level FlightAware ADS-B
Sun 11:44:00 PM 26.2890 -79.9270 341° North 416 479 36,100 353 Climbing FlightAware ADS-B
Sun 11:44:45 PM 26.3710 -79.9590 341° North 413 475 36,500 565 Climbing FlightAware ADS-B
Sun 11:45:25 PM 26.4440 -79.9860 342° North 411 473 36,900 353 Climbing FlightAware ADS-B
Sun 11:46:10 PM 26.5240 -80.0160 341° North 407 468 37,000 71 Climbing FlightAware ADS-B
Sun 11:46:50 PM 26.5980 -80.0450 341° North 406 467 37,000  Level FlightAware ADS-B
Sun 11:47:45 PM 26.6890 -80.0800 341° North 408 470 37,000  Level FlightAware ADS-B
Sun 11:48:25 PM 26.7500 -80.1040 341° North 408 470 37,000  Level FlightAware ADS-B
Sun 11:49:05 PM 26.8100 -80.1270 341° North 408 470 37,000  Level FlightAware ADS-B
Sun 11:49:45 PM 26.8710 -80.1510 341° North 408 470 37,000  Level FlightAware ADS-B
Sun 11:50:35 PM 26.9470 -80.1800 341° North 408 470 37,000  Level FlightAware ADS-B
Sun 11:51:15 PM 27.0730 -80.2290 341° North 409 471 37,000  Level FlightAware ADS-B
Sun 11:52:00 PM 27.1540 -80.2600 341° North 407 468 37,000  Level FlightAware ADS-B
Sun 11:52:35 PM 27.2120 -80.2830 341° North 407 468 37,000  Level FlightAware ADS-B
Sun 11:53:20 PM 27.2940 -80.3150 341° North 407 468 37,000  Level FlightAware ADS-B
Sun 11:54:05 PM 27.3740 -80.3460 341° North 406 467 37,000  Level FlightAware ADS-B
Sun 11:54:45 PM 27.4470 -80.3740 341° North 406 467 37,000  Level FlightAware ADS-B
Sun 11:55:30 PM 27.5280 -80.4060 341° North 406 467 37,000  Level FlightAware ADS-B
Sun 11:56:10 PM 27.5980 -80.4330 341° North 405 466 37,000  Level FlightAware ADS-B
Sun 11:56:55 PM 27.6780 -80.4650 340° North 406 467 37,000  Level FlightAware ADS-B
Sun 11:57:35 PM 27.7490 -80.4930 341° North 404 465 37,000  Level FlightAware ADS-B
Sun 11:58:10 PM 27.8040 -80.5290 330° Northwest 386 444 37,000 -212 Level FlightAware ADS-B
Sun 11:59:00 PM 27.8790 -80.5830 328° Northwest 385 443 36,700 -467 Descending FlightAware ADS-B
Sun 11:59:40 PM 27.9410 -80.6290 327° Northwest 389 448 36,300 -635 Descending FlightAware ADS-B
Mon 12:00:25 AM 28.0110 -80.6830 326° Northwest 404 465 35,800 -635 Descending FlightAware ADS-B
Mon 12:01:05 AM 28.0720 -80.7290 326° Northwest 396 456 35,400 -600 Descending FlightAware ADS-B
Mon 12:01:45 AM 28.1330 -80.7780 325° Northwest 398 458 35,000 -282 Descending FlightAware ADS-B
Mon 12:02:30 AM 28.2010 -80.8320 325° Northwest 397 457 35,000  Level FlightAware ADS-B
Mon 12:03:10 AM 28.2660 -80.8750 330° Northwest 413 475 35,000  Level FlightAware ADS-B
Mon 12:03:50 AM 28.3440 -80.8960 347° North 425 489 35,000  Level FlightAware ADS-B
Mon 12:04:35 AM 28.4330 -80.9160 349° North 427 491 35,000  Level FlightAware ADS-B
Mon 12:05:15 AM 28.5130 -80.9340 349° North 427 491 35,000  Level FlightAware ADS-B
Mon 12:06:00 AM 28.6000 -80.9530 349° North 426 490 35,000  Level FlightAware ADS-B
Mon 12:06:40 AM 28.6800 -80.9710 349° North 427 491 35,000  Level FlightAware ADS-B
Mon 12:07:25 AM 28.7690 -80.9910 349° North 427 491 35,000  Level FlightAware ADS-B
Mon 12:08:05 AM 28.8470 -81.0090 349° North 427 491 35,000  Level FlightAware ADS-B
Mon 12:08:45 AM 28.9250 -81.0270 349° North 427 491 35,000  Level FlightAware ADS-B
Mon 12:09:30 AM 29.0160 -81.0470 349° North 430 495 35,000 212 Level FlightAware ADS-B
Mon 12:10:10 AM 29.0970 -81.0660 348° North 441 507 35,300 600 Climbing FlightAware ADS-B
Mon 12:10:50 AM 29.1750 -81.0840 349° North 441 507 35,800 660 Climbing FlightAware ADS-B
Mon 12:11:50 AM 29.2970 -81.1100 349° North 436 502 36,400 379 Climbing FlightAware ADS-B
Mon 12:12:25 AM 29.3580 -81.1200 352° North 436 502 36,400  Level FlightAware ADS-B
Mon 12:13:15 AM 29.4430 -81.1340 352° North 436 502 36,400  Level FlightAware ADS-B
Mon 12:13:55 AM 29.5110 -81.1450 352° North 436 502 36,400  Level FlightAware ADS-B
Mon 12:14:35 AM 29.5790 -81.1560 352° North 436 502 36,400  Level FlightAware ADS-B
Mon 12:15:15 AM 29.6470 -81.1670 352° North 436 502 36,400  Level FlightAware ADS-B
Mon 12:15:55 AM 29.7150 -81.1780 352° North 436 502 36,400  Level FlightAware ADS-B
Mon 12:16:45 AM 29.8000 -81.1920 352° North 436 502 36,400  Level FlightAware ADS-B
Mon 12:17:25 AM 29.8670 -81.2030 352° North 436 502 36,400  Level FlightAware ADS-B
Mon 12:18:05 AM 29.9350 -81.2140 352° North 436 502 36,400  Level FlightAware ADS-B
Mon 12:18:45 AM 30.0030 -81.2250 352° North 436 502 36,400  Level FlightAware ADS-B
Mon 12:19:25 AM 30.0710 -81.2360 352° North 436 502 36,400  Level FlightAware ADS-B
Mon 12:20:15 AM 30.1560 -81.2490 352° North 436 502 36,400  Level FlightAware ADS-B
Mon 12:20:55 AM 30.2240 -81.2600 352° North 436 502 36,400  Level FlightAware ADS-B
Mon 12:21:35 AM 30.2920 -81.2710 352° North 436 502 36,400 371 Level FlightAware ADS-B
Mon 12:22:32 AM 30.6681 -81.1536 352° North 462 532 37,000 256 Climbing Jacksonville Center
Mon 12:23:32 AM 30.8019 -81.1633 356° North 462 532 36,900  Descending Jacksonville Center
Mon 12:28:50 AM 31.5000 -80.9870 356° North 507 583 37,000 17 Climbing FlightAware ADS-B
Mon 12:29:35 AM 31.6150 -80.9460 17° North 511 588 37,000  Level FlightAware ADS-B
Mon 12:30:10 AM 31.6800 -80.9230 17° North 510 587 37,000  Level FlightAware ADS-B
Mon 12:30:50 AM 31.7680 -80.8920 17° North 511 588 37,000  Level FlightAware ADS-B
Mon 12:31:35 AM 31.8850 -80.8510 17° North 515 593 37,000  Level FlightAware ADS-B
Mon 12:32:50 AM 32.0480 -80.7930 17° North 513 590 37,000  Level FlightAware ADS-B
Mon 12:33:25 AM 32.1320 -80.7630 17° North 504 580 37,000  Level FlightAware ADS-B
Mon 12:34:10 AM 32.2220 -80.7300 17° North 502 578 37,000  Level FlightAware ADS-B
Mon 12:34:55 AM 32.3120 -80.7000 16° North 502 578 37,000  Level FlightAware ADS-B
Mon 12:35:35 AM 32.4270 -80.6590 17° North 500 575 37,000  Level FlightAware ADS-B
Mon 12:36:20 AM 32.5260 -80.6220 17° North 497 572 37,000  Level FlightAware ADS-B
Mon 12:37:00 AM 32.6140 -80.5900 17° North 495 570 37,000  Level FlightAware ADS-B
Mon 12:37:45 AM 32.7120 -80.5550 17° North 496 571 37,000  Level FlightAware ADS-B
Mon 12:38:25 AM 32.8010 -80.5230 17° North 495 570 37,000  Level FlightAware ADS-B
Mon 12:39:05 AM 32.8880 -80.4910 17° North 493 567 37,000  Level FlightAware ADS-B
Mon 12:39:50 AM 32.9850 -80.4560 17° North 493 567 37,000  Level FlightAware ADS-B
Mon 12:40:30 AM 33.0640 -80.4280 17° North 493 567 37,000  Level FlightAware ADS-B
Mon 12:41:10 AM 33.1610 -80.3930 17° North 495 570 37,000  Level FlightAware ADS-B
Mon 12:41:55 AM 33.2600 -80.3570 17° North 499 574 37,000  Level FlightAware ADS-B
Mon 12:42:35 AM 33.3470 -80.3240 18° North 499 574 37,000  Level FlightAware ADS-B
Mon 12:43:20 AM 33.4470 -80.2880 17° North 502 578 37,000  Level FlightAware ADS-B
Mon 12:44:00 AM 33.5370 -80.2550 17° North 504 580 37,000  Level FlightAware ADS-B
Mon 12:44:40 AM 33.6250 -80.2230 17° North 506 582 37,000  Level FlightAware ADS-B
Mon 12:45:25 AM 33.7250 -80.1860 17° North 510 587 37,000  Level FlightAware ADS-B
Mon 12:46:05 AM 33.8170 -80.1520 17° North 512 589 37,000  Level FlightAware ADS-B
Mon 12:46:40 AM 33.8960 -80.1220 17° North 514 592 37,000  Level FlightAware ADS-B
Mon 12:48:15 AM 34.1040 -80.0450 17° North 519 597 37,000  Level FlightAware ADS-B
Mon 12:48:50 AM 34.1740 -80.0190 17° North 519 597 37,000  Level FlightAware ADS-B
Mon 12:49:35 AM 34.2910 -79.9750 17° North 522 601 37,000  Level FlightAware ADS-B
Mon 12:50:55 AM 34.3810 -79.9420 17° North 522 601 37,000  Level FlightAware ADS-B
Mon 12:51:45 AM 34.4790 -79.9050 17° North 522 601 37,000  Level FlightAware ADS-B
Mon 12:52:40 AM 34.3600 -79.9490 197° South 515 593 37,000  Level FlightAware ADS-B
Mon 12:53:20 AM 34.4380 -79.9210 16° North 515 593 37,000  Level FlightAware ADS-B
Mon 12:54:00 AM 34.5150 -79.8920 17° North 515 593 37,000  Level FlightAware ADS-B
Mon 12:54:40 AM 34.5930 -79.8630 17° North 515 593 37,000  Level FlightAware ADS-B
Mon 12:55:20 AM 34.6700 -79.8340 17° North 515 593 37,000  Level FlightAware ADS-B
Mon 12:56:10 AM 34.7670 -79.7980 17° North 515 593 37,000  Level FlightAware ADS-B
Mon 12:56:50 AM 34.8440 -79.7700 17° North 515 593 37,000  Level FlightAware ADS-B
Mon 12:57:45 AM 35.3960 -79.5560 18° North 504 580 37,000  Level FlightAware ADS-B
Mon 12:58:30 AM 35.5040 -79.5140 18° North 501 577 37,000  Level FlightAware ADS-B
Mon 12:59:10 AM 35.5840 -79.4830 17° North 493 567 37,000  Level FlightAware ADS-B
Mon 12:59:55 AM 35.6900 -79.4410 18° North 501 577 37,000  Level FlightAware ADS-B
Mon 01:00:35 AM 35.7780 -79.4080 17° North 501 577 37,000  Level FlightAware ADS-B
Mon 01:01:15 AM 35.8660 -79.3730 18° North 501 577 37,000  Level FlightAware ADS-B
Mon 01:01:55 AM 35.9480 -79.3410 18° North 502 578 37,000  Level FlightAware ADS-B
Mon 01:02:50 AM 36.0730 -79.2930 17° North 502 578 37,000  Level FlightAware ADS-B
Mon 01:03:50 AM 36.2040 -79.2410 18° North 502 578 37,000  Level FlightAware ADS-B
Mon 01:04:30 AM 36.2800 -79.2130 17° North 502 578 37,000  Level FlightAware ADS-B
Mon 01:05:10 AM 36.3550 -79.1840 17° North 502 578 37,000  Level FlightAware ADS-B
Mon 01:06:00 AM 36.4500 -79.1480 17° North 502 578 37,000  Level FlightAware ADS-B
Mon 01:07:10 AM 36.6450 -79.0680 18° North 503 579 37,000  Level FlightAware ADS-B
Mon 01:07:50 AM 36.7210 -79.0390 17° North 503 579 37,000  Level FlightAware ADS-B
Mon 01:08:30 AM 36.7970 -79.0100 17° North 503 579 37,000  Level FlightAware ADS-B
Mon 01:09:10 AM 36.8720 -78.9810 17° North 503 579 37,000  Level FlightAware ADS-B
Mon 01:09:50 AM 36.9480 -78.9520 17° North 503 579 37,000  Level FlightAware ADS-B
Mon 01:11:30 AM 37.2130 -78.8390 19° North 493 567 37,000  Level FlightAware ADS-B
Mon 01:12:45 AM 37.3870 -78.7680 18° North 489 563 37,000  Level FlightAware ADS-B
Mon 01:13:40 AM 37.4930 -78.7250 18° North 489 563 37,000  Level FlightAware ADS-B
Mon 01:14:20 AM 37.5660 -78.6950 18° North 489 563 37,000  Level FlightAware ADS-B
Mon 01:15:05 AM 37.6820 -78.6480 18° North 496 571 37,000  Level FlightAware ADS-B
Mon 01:15:45 AM 37.7720 -78.6110 18° North 496 571 37,000  Level FlightAware ADS-B
Mon 01:16:25 AM 37.8660 -78.5720 18° North 490 564 37,000  Level FlightAware ADS-B
Mon 01:17:10 AM 37.9670 -78.5310 18° North 490 564 37,000  Level FlightAware ADS-B
Mon 01:17:50 AM 38.0550 -78.4940 18° North 492 566 37,000  Level FlightAware ADS-B
Mon 01:18:29 AM 38.1536 -78.4538 18° North 502 578 37,000  Level FlightAware ADS-B
Mon 01:19:00 AM 38.2218 -78.4257 18° North 503 579 37,000  Level FlightAware ADS-B
Mon 01:19:32 AM 38.2924 -78.3962 18° North 505 581 37,000  Level FlightAware ADS-B
Mon 01:20:55 AM 38.4550 -78.3280 18° North 504 580 37,000  Level FlightAware ADS-B
Mon 01:21:35 AM 38.5490 -78.2880 18° North 505 581 37,000  Level FlightAware ADS-B
Mon 01:22:15 AM 38.6240 -78.2570 18° North 504 580 37,000  Level FlightAware ADS-B
Mon 01:23:00 AM 38.7390 -78.2080 18° North 504 580 37,000  Level FlightAware ADS-B
Mon 01:23:30 AM 38.8040 -78.1810 18° North 504 580 37,000  Level FlightAware ADS-B
Mon 01:24:13 AM 38.9139 -78.1345 18° North 504 580 37,000  Level FlightAware ADS-B
Mon 01:24:43 AM 38.9812 -78.1058 18° North 503 579 37,000  Level FlightAware ADS-B
Mon 01:25:13 AM 39.0482 -78.0772 18° North 502 578 37,000  Level FlightAware ADS-B
Mon 01:25:45 AM 39.1171 -78.0479 18° North 501 577 37,000  Level FlightAware ADS-B
Mon 01:26:16 AM 39.1860 -78.0186 18° North 500 575 37,000  Level FlightAware ADS-B
Mon 01:26:46 AM 39.2525 -77.9900 18° North 499 574 37,000  Level FlightAware ADS-B
Mon 01:27:17 AM 39.3190 -77.9614 18° North 499 574 37,000  Level FlightAware ADS-B
Mon 01:27:47 AM 39.3849 -77.9331 18° North 498 573 37,000  Level FlightAware ADS-B
Mon 01:28:17 AM 39.4508 -77.9046 18° North 498 573 37,000  Level FlightAware ADS-B
Mon 01:28:48 AM 39.5174 -77.8758 18° North 497 572 37,000  Level FlightAware ADS-B
Mon 01:29:18 AM 39.5834 -77.8473 18° North 496 571 37,000  Level FlightAware ADS-B
Mon 01:29:48 AM 39.6488 -77.8189 18° North 496 571 37,000  Level FlightAware ADS-B
Mon 01:30:19 AM 39.7151 -77.7901 18° North 497 572 37,000  Level FlightAware ADS-B
Mon 01:30:49 AM 39.7823 -77.7608 19° North 497 572 37,000  Level FlightAware ADS-B
Mon 01:31:20 AM 39.8483 -77.7321 18° North 497 572 37,000  Level FlightAware ADS-B
Mon 01:31:52 AM 39.9188 -77.7014 18° North 498 573 37,000  Level FlightAware ADS-B
Mon 01:32:23 AM 39.9875 -77.6711 19° North 498 573 37,000  Level FlightAware ADS-B
Mon 01:32:54 AM 40.0532 -77.6423 19° North 497 572 37,000  Level FlightAware ADS-B
Mon 01:33:24 AM 40.1190 -77.6134 19° North 497 572 37,000  Level FlightAware ADS-B
Mon 01:33:54 AM 40.1848 -77.5841 19° North 497 572 37,000  Level FlightAware ADS-B
Mon 01:34:24 AM 40.2505 -77.5548 19° North 497 572 37,000  Level FlightAware ADS-B
Mon 01:34:54 AM 40.3158 -77.5261 19° North 495 570 37,000  Level FlightAware ADS-B
Mon 01:35:25 AM 40.3814 -77.4973 18° North 493 567 37,000  Level FlightAware ADS-B
Mon 01:35:56 AM 40.4483 -77.4678 19° North 491 565 37,000  Level FlightAware ADS-B
Mon 01:36:26 AM 40.5135 -77.4388 19° North 489 563 37,000  Level FlightAware ADS-B
Mon 01:36:56 AM 40.5785 -77.4096 19° North 488 562 37,000  Level FlightAware ADS-B
Mon 01:37:27 AM 40.6441 -77.3801 19° North 486 559 37,000  Level FlightAware ADS-B
Mon 01:37:58 AM 40.7090 -77.3510 19° North 485 558 37,000  Level FlightAware ADS-B
Mon 01:38:28 AM 40.7728 -77.3225 19° North 484 557 37,000  Level FlightAware ADS-B
Mon 01:38:58 AM 40.8364 -77.2939 19° North 482 555 37,000  Level FlightAware ADS-B
Mon 01:39:28 AM 40.9000 -77.2654 19° North 481 554 37,000  Level FlightAware ADS-B
Mon 01:39:59 AM 40.9648 -77.2362 19° North 480 552 37,000  Level FlightAware ADS-B
Mon 01:40:29 AM 41.0281 -77.2073 19° North 481 554 37,000  Level FlightAware ADS-B
Mon 01:41:00 AM 41.0924 -77.1781 19° North 482 555 37,000  Level FlightAware ADS-B
Mon 01:41:31 AM 41.1583 -77.1477 19° North 483 556 37,000  Level FlightAware ADS-B
Mon 01:42:01 AM 41.2220 -77.1186 19° North 483 556 37,000  Level FlightAware ADS-B
Mon 01:42:31 AM 41.2860 -77.0892 19° North 482 555 37,000  Level FlightAware ADS-B
Mon 01:43:02 AM 41.3498 -77.0599 19° North 483 556 37,000  Level FlightAware ADS-B
Mon 01:43:32 AM 41.4140 -77.0307 19° North 483 556 37,000  Level FlightAware ADS-B
Mon 01:44:03 AM 41.4782 -77.0015 19° North 483 556 37,000  Level FlightAware ADS-B
Mon 01:44:33 AM 41.5417 -76.9724 19° North 484 557 37,000  Level FlightAware ADS-B
Mon 01:45:03 AM 41.6055 -76.9427 19° North 485 558 37,000  Level FlightAware ADS-B
Mon 01:45:33 AM 41.6696 -76.9128 19° North 485 558 37,000  Level FlightAware ADS-B
Mon 01:46:04 AM 41.7345 -76.8824 19° North 486 559 37,000  Level FlightAware ADS-B
Mon 01:46:35 AM 41.8001 -76.8519 19° North 486 559 37,000  Level FlightAware ADS-B
Mon 01:47:14 AM 41.8829 -76.8137 19° North 486 559 37,000  Level FlightAware ADS-B
Mon 01:47:44 AM 41.9471 -76.7840 19° North 485 558 37,000  Level FlightAware ADS-B
Mon 01:48:14 AM 42.0114 -76.7540 19° North 486 559 37,000  Level FlightAware ADS-B
Mon 01:48:46 AM 42.0784 -76.7225 19° North 487 560 37,000  Level FlightAware ADS-B
Mon 01:49:18 AM 42.1458 -76.6909 19° North 487 560 37,000  Level FlightAware ADS-B
Mon 01:49:53 AM 42.2206 -76.6555 19° North 487 560 37,000  Level FlightAware ADS-B
Mon 01:50:30 AM 42.2640 -76.6350 19° North 486 559 37,000  Level FlightAware ADS-B
Mon 01:51:15 AM 42.3620 -76.5880 20° North 486 559 37,000  Level FlightAware ADS-B
Mon 01:51:55 AM 42.4420 -76.5500 19° North 485 558 37,000  Level FlightAware ADS-B
Mon 01:52:35 AM 42.5320 -76.5080 19° North 485 558 37,000  Level FlightAware ADS-B
Mon 01:53:15 AM 42.6160 -76.4680 19° North 483 556 37,000  Level FlightAware ADS-B
Mon 01:54:00 AM 42.7050 -76.4250 20° North 483 556 37,000  Level FlightAware ADS-B
Mon 01:54:45 AM 42.8060 -76.3760 20° North 482 555 37,000  Level FlightAware ADS-B
Mon 01:55:25 AM 42.8900 -76.3360 19° North 482 555 37,000  Level FlightAware ADS-B
Mon 01:56:10 AM 42.9790 -76.2930 19° North 482 555 37,000  Level FlightAware ADS-B
Mon 01:56:50 AM 43.0640 -76.2510 20° North 480 552 37,000  Level FlightAware ADS-B
Mon 01:57:30 AM 43.1440 -76.2140 19° North 476 548 37,000 -988 Level FlightAware ADS-B
Mon 01:58:15 AM 43.2440 -76.1900 10° North 467 537 35,600 -2,400 Descending FlightAware ADS-B
Mon 01:58:50 AM 43.3220 -76.1760 North 471 542 33,800 -2,325 Descending FlightAware ADS-B
Mon 01:59:35 AM 43.4130 -76.1600 North 457 526 32,500 -1,400 Descending FlightAware ADS-B
Mon 02:00:20 AM 43.5070 -76.1430 North 432 497 31,700 -1,271 Descending FlightAware ADS-B
Mon 02:01:00 AM 43.5880 -76.1300 North 420 483 30,700 -1,624 Descending FlightAware ADS-B
Mon 02:01:45 AM 43.6680 -76.1150 North 408 470 29,400 -1,694 Descending FlightAware ADS-B
Mon 02:02:25 AM 43.7420 -76.1020 North 400 460 28,300 -1,765 Descending FlightAware ADS-B
Mon 02:03:10 AM 43.8280 -76.0870 North 390 449 26,900 -1,694 Descending FlightAware ADS-B
Mon 02:03:50 AM 43.8960 -76.0750 North 382 440 25,900 -1,575 Descending FlightAware ADS-B
Mon 02:04:30 AM 43.9660 -76.0540 12° North 380 437 24,800 -1,624 Descending FlightAware ADS-B
Mon 02:05:15 AM 44.0390 -76.0080 24° Northeast 375 432 23,600 -1,553 Descending FlightAware ADS-B
Mon 02:05:55 AM 44.0990 -75.9690 25° Northeast 367 422 22,600 -1,575 Descending FlightAware ADS-B
Mon 02:06:35 AM 44.1630 -75.9270 25° Northeast 360 414 21,500 -1,624 Descending FlightAware ADS-B
Mon 02:07:20 AM 44.2290 -75.8840 25° Northeast 352 405 20,300 -1,412 Descending FlightAware ADS-B
Mon 02:08:00 AM 44.2790 -75.8510 25° Northeast 347 399 19,500 -1,694 Descending FlightAware ADS-B
Mon 02:08:45 AM 44.3720 -75.7900 25° Northeast 335 386 17,900 -1,906 Descending FlightAware ADS-B
Mon 02:09:25 AM 44.4260 -75.7540 25° Northeast 326 375 16,800 -1,725 Descending FlightAware ADS-B
Mon 02:10:05 AM 44.4820 -75.7170 25° Northeast 335 386 15,600 -1,765 Descending FlightAware ADS-B
Mon 02:10:50 AM 44.5470 -75.6740 25° Northeast 323 372 14,300 -1,624 Descending FlightAware ADS-B
Mon 02:11:30 AM 44.5820 -75.6510 25° Northeast 328 377 13,300 -1,412 Descending FlightAware ADS-B
Mon 02:12:15 AM 44.6560 -75.6020 25° Northeast 317 365 12,300 -1,482 Descending FlightAware ADS-B
Mon 02:12:55 AM 44.7140 -75.5630 26° Northeast 301 346 11,200 -1,650 Descending FlightAware ADS-B
Mon 02:13:35 AM 44.7620 -75.5360 22° Northeast 305 351 10,100 -1,569 Descending FlightAware ADS-B
Mon 02:14:00 AM 44.7980 -75.5270 10° North 292 336 9,500 -600 Descending FlightAware ADS-B
Mon 02:14:35 AM 44.8410 -75.5170 North 292 336 9,500  Level FlightAware ADS-B
Mon 02:14:55 AM 44.8640 -75.5120 North 292 336 9,500  Level FlightAware ADS-B
Mon 02:15:25 AM 44.8980 -75.5050 North 292 336 9,500  Level FlightAware ADS-B
Mon 02:15:55 AM 44.9320 -75.4970 North 292 336 9,500 -2,706 Level FlightAware ADS-B
Mon 02:16:16 AM 44.9667 -75.5000 North 280 322 7,200 -2,593 Descending Montreal Center
Mon 02:17:16 AM 45.0333 -75.4667 19° North 270 311 6,000 -1,150 Descending Montreal Center
Mon 02:18:16 AM 45.1000 -75.4500 10° North 270 311 4,900 -900 Descending Montreal Center
Mon 02:19:16 AM 45.1833 -75.4500 360° North 230 265 4,200 -850 Descending Montreal Center
Mon 02:20:16 AM 45.2167 -75.5000 313° West 200 230 3,200 -1,050 Descending Montreal Center
Mon 02:21:16 AM 45.2500 -75.5667 305° West 180 207 2,100 -1,000 Descending Montreal Center
Mon 02:22:16 AM 45.2667 -75.6167 295° West 160 184 1,200 -900 Descending Montreal Center

Login

Don't have an account? Register now (free) for customized features, flight alerts, and more!